Altenburg, Missouri
Current Conditions -  °F | °C
As of 12:52 AM on Friday 31 Oct 2014 (Local Time) from KMDH Reporting Station
Overcast Overcast  
Wind Chill: 51°   Ceiling: 5500
Heat Index: 51°   Visibility: 10mi
Dew Point: 48°   Wind: 0mph
Humidity: 89%   Direction: NA
Pressure: 30.03"   Gusts: NA
Location:  37.63°N, 89.59°W
Report Text: KMDH 310552Z AUTO 00000KT 10SM OVC055 11/09 A3003 RMK AO2 SLP168 60001 T01060089 10133 20106 401721006 55002
Loading
Personal Weather Stations






























Interactive Weather Map
Tropical Storm Tracking
New forecast layout! Learn more

10-Day Weather Forecast

Advertisements
Track Severe Weather on mobile